Time;durP1;ratioP1;P1;durP2;ratioP2;P2;SDS_P1;SDS_P2;PMS_P1;PMS_P2;Temp;Humidity;BMP_temperature;BMP_pressure;BME280_temperature;BME280_humidity;BME280_pressure;Samples;Min_cycle;Max_cycle;Signal;HPM_P1;HPM_P2
2023/07/30 00:02:06;;;;;;;3.10;2.80;;;;;;;;;;5010872;28;20318;-75
2023/07/30 00:04:32;;;;;;;5.77;3.40;;;;;;;;;;5007809;28;20218;-75
2023/07/30 00:06:58;;;;;;;4.63;3.10;;;;;;;;;;5007111;28;20192;-75
2023/07/30 00:09:24;;;;;;;4.47;3.83;;;;;;;;;;5009019;28;20265;-75
2023/07/30 00:11:50;;;;;;;3.83;3.17;;;;;;;;;;5009533;28;20238;-75
2023/07/30 00:14:16;;;;;;;3.87;3.30;;;;;;;;;;5014000;28;20202;-75
2023/07/30 00:16:42;;;;;;;3.87;3.43;;;;;;;;;;5011926;28;20242;-75
2023/07/30 00:19:09;;;;;;;5.10;3.27;;;;;;;;;;5022975;28;20194;-75
2023/07/30 00:21:35;;;;;;;4.07;2.83;;;;;;;;;;5014604;28;20634;-75
2023/07/30 00:24:01;;;;;;;6.10;2.90;;;;;;;;;;5012399;28;20612;-75
2023/07/30 00:26:28;;;;;;;7.20;2.80;;;;;;;;;;5011858;28;20179;-75
2023/07/30 00:28:54;;;;;;;3.10;2.80;;;;;;;;;;5012289;28;20645;-75
2023/07/30 00:31:20;;;;;;;11.13;3.10;;;;;;;;;;5012352;28;20692;-75
2023/07/30 00:33:46;;;;;;;3.37;2.97;;;;;;;;;;5027078;28;20218;-76
2023/07/30 00:36:13;;;;;;;3.30;3.00;;;;;;;;;;5011768;28;20183;-75
2023/07/30 00:38:39;;;;;;;4.87;2.93;;;;;;;;;;5010728;28;20175;-76
2023/07/30 00:41:05;;;;;;;3.07;2.70;;;;;;;;;;5011937;28;20207;-75
2023/07/30 00:43:31;;;;;;;3.87;2.43;;;;;;;;;;5027343;28;20190;-75
2023/07/30 00:45:57;;;;;;;3.67;2.57;;;;;;;;;;5011410;28;20198;-77
2023/07/30 00:48:23;;;;;;;2.67;2.40;;;;;;;;;;5011152;28;20278;-76
2023/07/30 00:50:49;;;;;;;2.60;2.40;;;;;;;;;;5012738;28;20567;-76
2023/07/30 00:53:17;;;;;;;2.97;2.20;;;;;;;;;;5012041;28;20307;-76
2023/07/30 00:55:43;;;;;;;2.63;2.43;;;;;;;;;;5011290;28;20195;-76
2023/07/30 00:58:10;;;;;;;3.00;2.60;;;;;;;;;;5004085;28;20195;-76
2023/07/30 01:00:36;;;;;;;2.40;2.20;;;;;;;;;;5012498;28;20175;-76
2023/07/30 01:03:04;;;;;;;2.50;2.30;;;;;;;;;;4997015;28;20183;-76
2023/07/30 01:05:30;;;;;;;3.40;2.40;;;;;;;;;;5013525;28;20214;-76
2023/07/30 01:07:56;;;;;;;2.83;2.40;;;;;;;;;;5012994;28;20277;-76
2023/07/30 01:10:23;;;;;;;3.23;2.80;;;;;;;;;;5011978;28;20211;-76
2023/07/30 01:12:49;;;;;;;3.00;2.70;;;;;;;;;;5026527;28;20267;-76
2023/07/30 01:15:15;;;;;;;2.50;2.30;;;;;;;;;;5009916;28;20203;-76
2023/07/30 01:17:42;;;;;;;3.47;2.77;;;;;;;;;;5011407;28;20183;-76
2023/07/30 01:20:08;;;;;;;5.40;3.27;;;;;;;;;;5006579;28;20176;-75
2023/07/30 01:22:34;;;;;;;3.63;3.17;;;;;;;;;;5011930;28;20228;-76
2023/07/30 01:25:01;;;;;;;3.70;3.20;;;;;;;;;;5011276;28;20207;-76
2023/07/30 01:27:29;;;;;;;3.67;3.37;;;;;;;;;;5009926;28;20591;-76
2023/07/30 01:30:04;;;;;;;5.03;3.30;;;;;;;;;;5012789;28;20210;-75
2023/07/30 01:32:30;;;;;;;4.90;3.60;;;;;;;;;;5010186;28;20688;-76
2023/07/30 01:34:57;;;;;;;3.37;3.07;;;;;;;;;;5025652;28;20302;-76
2023/07/30 01:37:24;;;;;;;3.70;3.30;;;;;;;;;;5026162;28;20179;-76
2023/07/30 01:39:50;;;;;;;4.73;3.43;;;;;;;;;;5012436;28;20179;-76
2023/07/30 01:42:16;;;;;;;3.53;3.23;;;;;;;;;;5011114;28;20215;-76
2023/07/30 01:44:42;;;;;;;3.90;3.50;;;;;;;;;;5009665;28;20218;-76
2023/07/30 01:47:09;;;;;;;5.03;3.70;;;;;;;;;;5010418;28;20187;-75
2023/07/30 01:49:35;;;;;;;6.13;3.83;;;;;;;;;;5009769;28;20191;-76
2023/07/30 01:52:01;;;;;;;3.73;3.43;;;;;;;;;;5010773;28;20704;-76
2023/07/30 01:54:27;;;;;;;4.73;4.03;;;;;;;;;;5012661;28;20859;-76
2023/07/30 01:56:53;;;;;;;4.20;3.17;;;;;;;;;;5028145;28;20229;-76
2023/07/30 01:59:19;;;;;;;3.63;3.33;;;;;;;;;;5009932;28;20206;-76
2023/07/30 02:01:45;;;;;;;4.43;3.03;;;;;;;;;;5009444;28;20198;-76
2023/07/30 02:04:12;;;;;;;3.47;3.17;;;;;;;;;;5027040;28;20215;-76
2023/07/30 02:06:38;;;;;;;5.77;3.53;;;;;;;;;;5024996;28;20253;-76
2023/07/30 02:09:04;;;;;;;3.97;3.23;;;;;;;;;;5012606;28;20179;-76
2023/07/30 02:11:30;;;;;;;3.67;3.27;;;;;;;;;;5009475;28;20190;-76
2023/07/30 02:13:56;;;;;;;4.10;3.70;;;;;;;;;;5010134;28;20206;-76
2023/07/30 02:16:22;;;;;;;3.87;3.57;;;;;;;;;;5008530;28;20689;-76
2023/07/30 02:18:48;;;;;;;4.33;3.40;;;;;;;;;;5010407;28;20723;-76
2023/07/30 02:21:14;;;;;;;3.90;3.47;;;;;;;;;;5010307;28;20269;-75
2023/07/30 02:23:40;;;;;;;4.23;3.67;;;;;;;;;;5010169;28;20264;-76
2023/07/30 02:26:07;;;;;;;3.97;3.60;;;;;;;;;;5009756;28;20345;-76
2023/07/30 02:28:33;;;;;;;4.47;3.63;;;;;;;;;;5011875;28;20190;-76
2023/07/30 02:30:59;;;;;;;3.80;3.40;;;;;;;;;;5008909;28;20215;-76
2023/07/30 02:33:25;;;;;;;3.80;3.17;;;;;;;;;;5025528;28;20207;-76
2023/07/30 02:35:51;;;;;;;5.03;3.63;;;;;;;;;;5008727;28;20214;-76
2023/07/30 02:38:17;;;;;;;4.43;3.43;;;;;;;;;;5010098;28;20533;-76
2023/07/30 02:40:44;;;;;;;4.03;3.47;;;;;;;;;;5008681;28;20559;-76
2023/07/30 02:43:10;;;;;;;4.30;3.90;;;;;;;;;;5002194;28;20183;-76
2023/07/30 02:45:36;;;;;;;4.07;3.60;;;;;;;;;;5009732;28;20199;-76
2023/07/30 02:48:02;;;;;;;3.80;3.50;;;;;;;;;;5025855;28;20202;-76
2023/07/30 02:50:28;;;;;;;4.03;3.73;;;;;;;;;;5025041;28;20197;-76
2023/07/30 02:52:55;;;;;;;4.20;3.43;;;;;;;;;;5008314;28;20682;-76
2023/07/30 02:55:21;;;;;;;4.10;3.70;;;;;;;;;;5008226;28;20673;-76
2023/07/30 02:57:47;;;;;;;5.27;3.47;;;;;;;;;;5010894;28;20186;-76
2023/07/30 03:00:13;;;;;;;5.77;3.60;;;;;;;;;;5009964;28;20233;-76
2023/07/30 03:02:40;;;;;;;4.07;3.67;;;;;;;;;;5008361;28;20225;-75
2023/07/30 03:05:06;;;;;;;3.57;3.27;;;23.20;99.90;;;;;;5024486;28;20225;-76
2023/07/30 03:07:32;;;;;;;5.23;3.67;;;20.70;99.90;;;;;;5009459;28;20187;-76
2023/07/30 03:09:58;;;;;;;4.60;3.00;;;20.60;99.90;;;;;;5008224;28;20639;-76
2023/07/30 03:12:24;;;;;;;4.70;3.23;;;20.60;99.90;;;;;;4992229;28;20203;-76
2023/07/30 03:14:49;;;;;;;4.00;3.20;;;20.50;99.90;;;;;;5009407;28;20206;-76
2023/07/30 03:17:15;;;;;;;4.63;3.47;;;20.50;99.90;;;;;;5009260;28;20182;-76
2023/07/30 03:19:41;;;;;;;3.60;3.30;;;20.60;99.90;;;;;;5009611;28;20585;-75
2023/07/30 03:22:06;;;;;;;4.57;3.70;;;20.60;99.90;;;;;;5024908;28;20214;-75
2023/07/30 03:24:32;;;;;;;4.77;3.73;;;20.60;99.90;;;;;;5008546;28;20238;-75
2023/07/30 03:26:58;;;;;;;3.83;3.53;;;20.60;99.90;;;;;;5007576;28;20189;-76
2023/07/30 03:29:23;;;;;;;3.87;3.47;;;20.60;99.90;;;;;;5009704;28;20179;-76
2023/07/30 03:31:49;;;;;;;4.00;3.60;;;20.60;99.90;;;;;;5009687;28;20183;-75
2023/07/30 03:34:15;;;;;;;4.87;3.67;;;20.60;99.90;;;;;;5009932;28;20289;-76
2023/07/30 03:36:41;;;;;;;4.43;3.30;;;20.60;99.90;;;;;;5010669;28;20171;-76
2023/07/30 03:39:06;;;;;;;4.43;3.60;;;20.60;99.90;;;;;;5009603;28;20187;-76
2023/07/30 03:41:32;;;;;;;4.90;3.80;;;20.60;99.90;;;;;;5009847;28;20187;-76
2023/07/30 03:43:58;;;;;;;5.40;3.70;;;20.60;99.90;;;;;;5009304;28;20199;-76
2023/07/30 03:46:23;;;;;;;4.00;3.60;;;20.50;99.90;;;;;;5007791;28;20187;-76
2023/07/30 03:48:49;;;;;;;3.93;3.60;;;20.50;99.90;;;;;;5011934;28;20198;-76
2023/07/30 03:51:15;;;;;;;4.73;3.73;;;20.50;99.90;;;;;;5013285;28;20698;-76
2023/07/30 03:53:42;;;;;;;3.90;3.53;;;20.50;99.90;;;;;;5012830;28;20211;-76
2023/07/30 03:56:08;;;;;;;4.10;3.40;;;;;;;;;;5028412;28;20215;-76
2023/07/30 03:58:35;;;;;;;6.10;3.60;;;;;;;;;;5028346;28;20180;-76
2023/07/30 04:01:02;;;;;;;4.43;3.40;;;;;;;;;;5012002;28;20201;-76
2023/07/30 04:03:28;;;;;;;5.90;3.80;;;;;;;;;;5029964;28;20198;-76
2023/07/30 04:05:54;;;;;;;3.90;3.60;;;;;;;;;;5027508;28;20229;-76
2023/07/30 04:08:21;;;;;;;4.53;3.57;;;;;;;;;;5013096;28;20187;-76
2023/07/30 04:10:47;;;;;;;4.20;3.80;;;;;;;;;;4996970;28;20187;-76
2023/07/30 04:13:13;;;;;;;4.37;3.90;;;;;;;;;;5013065;28;20215;-76
2023/07/30 04:15:40;;;;;;;4.40;4.00;;;;;;;;;;5011017;28;20207;-76
2023/07/30 04:18:06;;;;;;;5.20;4.17;;;;;;;;;;5012445;28;20183;-76
2023/07/30 04:20:32;;;;;;;4.27;3.87;;;;;;;;;;5029894;28;20215;-76
2023/07/30 04:22:58;;;;;;;4.03;3.70;;;;;;;;;;5011217;28;20278;-76
2023/07/30 04:25:26;;;;;;;4.47;4.07;;;;;;;;;;5027441;28;20221;-76
2023/07/30 04:27:52;;;;;;;4.13;3.83;;;;;;;;;;5013816;28;20190;-76
2023/07/30 04:30:19;;;;;;;4.30;3.90;;;;;;;;;;5027752;28;20274;-76
2023/07/30 04:32:45;;;;;;;4.03;3.73;;;;;;;;;;5010715;28;20562;-76
2023/07/30 04:35:12;;;;;;;5.20;3.73;;;;;;;;;;5027358;28;20203;-76
2023/07/30 04:37:39;;;;;;;5.70;3.90;;;;;;;;;;5010541;28;20266;-76
2023/07/30 04:40:06;;;;;;;4.30;3.90;;;;;;;;;;5013520;28;20190;-76
2023/07/30 04:42:33;;;;;;;4.20;3.70;;;;;;;;;;5011497;28;20662;-76
2023/07/30 04:44:59;;;;;;;5.47;3.97;;;;;;;;;;5010765;28;20249;-76
2023/07/30 04:47:25;;;;;;;3.90;3.60;;;;;;;;;;5026770;28;20191;-76
2023/07/30 04:49:51;;;;;;;3.80;3.43;;;;;;;;;;5027089;28;20187;-76
2023/07/30 04:52:19;;;;;;;5.23;3.87;;;;;;;;;;5026922;28;20259;-76
2023/07/30 04:54:45;;;;;;;4.00;3.70;;;;;;;;;;5012379;28;20199;-76
2023/07/30 04:57:11;;;;;;;4.07;3.67;;;;;;;;;;5026442;28;20383;-76
2023/07/30 04:59:38;;;;;;;4.17;3.50;;;;;;;;;;5011487;28;20179;-76
2023/07/30 05:02:04;;;;;;;5.03;4.17;;;;;;;;;;5010702;28;20179;-76
2023/07/30 05:04:30;;;;;;;3.77;3.47;;;;;;;;;;5051159;22;20238;-77
2023/07/30 05:06:56;;;;;;;3.73;3.43;;;;;;;;;;5030027;28;20221;-77
2023/07/30 05:09:22;;;;;;;3.90;3.50;;;;;;;;;;5044646;28;20269;-77
2023/07/30 05:11:49;;;;;;;3.53;3.23;;;;;;;;;;5037943;28;20178;-78
2023/07/30 05:14:15;;;;;;;4.00;3.70;;;;;;;;;;5015224;28;20213;-77
2023/07/30 05:16:41;;;;;;;3.70;3.40;;;;;;;;;;5032657;28;20311;-77
2023/07/30 05:19:08;;;;;;;4.00;3.53;;;;;;;;;;5015595;28;20309;-77
2023/07/30 05:21:34;;;;;;;4.13;3.40;;;;;;;;;;5033102;28;20186;-76
2023/07/30 05:24:01;;;;;;;4.17;3.77;;;;;;;;;;5015398;28;20190;-77
2023/07/30 05:26:27;;;;;;;4.20;3.57;;;;;;;;;;5032246;28;20201;-77
2023/07/30 05:28:53;;;;;;;3.20;3.00;;;;;;;;;;5033164;28;20625;-77
2023/07/30 05:31:19;;;;;;;4.10;3.57;;;;;;;;;;5033047;28;20188;-77
2023/07/30 05:33:45;;;;;;;4.10;3.70;;;;;;;;;;5015163;28;20210;-77
2023/07/30 05:36:11;;;;;;;3.70;3.40;;;;;;;;;;5025225;28;20203;-77
2023/07/30 05:38:37;;;;;;;4.83;3.60;;;;;;;;;;5015036;28;20186;-77
2023/07/30 05:41:04;;;;;;;3.20;2.90;;;;;;;;;;4997867;28;20277;-77
2023/07/30 05:43:30;;;;;;;3.77;3.20;;;;;;;;;;5032992;28;20561;-78
2023/07/30 05:45:56;;;;;;;3.57;3.00;;;;;;;;;;5023710;28;20229;-77
2023/07/30 05:48:22;;;;;;;4.50;2.83;;;;;;;;;;5032266;28;20182;-77
2023/07/30 05:50:48;;;;;;;3.20;2.90;;;;;;;;;;5014500;28;20195;-76
2023/07/30 05:53:14;;;;;;;3.07;2.87;;;;;;;;;;5008199;28;20206;-76
2023/07/30 05:55:41;;;;;;;3.63;3.00;;;;;;;;;;5031278;28;20198;-76
2023/07/30 05:58:07;;;;;;;3.13;2.83;;;;;;;;;;5031612;28;20265;-76
2023/07/30 06:00:33;;;;;;;3.00;2.80;;;;;;;;;;5024259;28;20188;-76
2023/07/30 06:02:59;;;;;;;2.90;2.70;;;;;;;;;;5031319;28;20228;-76
2023/07/30 06:05:25;;;;;;;4.03;2.80;;;;;;;;;;5010845;28;20222;-76
2023/07/30 06:07:51;;;;;;;3.10;2.90;;;;;;;;;;5029797;28;20627;-76
2023/07/30 06:10:17;;;;;;;3.40;3.10;;;;;;;;;;5029475;28;20244;-76
2023/07/30 06:12:43;;;;;;;4.17;2.87;;;;;;;;;;5028283;28;20229;-75
2023/07/30 06:15:10;;;;;;;4.00;3.10;;;;;;;;;;5029933;28;20206;-75
2023/07/30 06:17:36;;;;;;;4.03;3.20;;;;;;;;;;5029529;28;20259;-75
2023/07/30 06:20:02;;;;;;;3.43;3.10;;;;;;;;;;5026701;28;20185;-76
2023/07/30 06:22:29;;;;;;;6.50;2.80;;;;;;;;;;5024861;28;20190;-76
2023/07/30 06:24:55;;;;;;;4.10;3.37;;;;;;;;;;5011921;28;20214;-76
2023/07/30 06:27:21;;;;;;;3.43;2.83;;;;;;;;;;5029341;28;20228;-76
2023/07/30 06:29:47;;;;;;;3.20;2.90;;;;;;;;;;5029681;28;20199;-76
2023/07/30 06:32:13;;;;;;;2.60;2.40;;;;;;;;;;5004343;28;20228;-75
2023/07/30 06:34:39;;;;;;;2.80;2.60;;;;;;;;;;5011869;28;20202;-76
2023/07/30 06:37:05;;;;;;;4.40;2.97;;;;;;;;;;5029194;28;20574;-76
2023/07/30 06:39:32;;;;;;;2.83;2.63;;;;;;;;;;5012143;28;20186;-76
2023/07/30 06:41:58;;;;;;;4.43;2.80;;;;;;;;;;5029500;28;20743;-76
2023/07/30 06:44:25;;;;;;;3.20;2.90;;;;;;;;;;5012153;28;20693;-76
2023/07/30 06:46:51;;;;;;;3.67;2.97;;;;;;;;;;5028713;28;20197;-76
2023/07/30 06:49:17;;;;;;;3.70;2.73;;;;;;;;;;5029667;28;20895;-76
2023/07/30 06:51:43;;;;;;;3.87;2.93;;;;;;;;;;5029412;28;20240;-76
2023/07/30 06:54:09;;;;;;;3.73;2.73;;;;;;;;;;5029293;28;20212;-76
2023/07/30 06:56:35;;;;;;;3.10;2.90;;;;;;;;;;5029057;28;20304;-76
2023/07/30 06:59:03;;;;;;;3.30;3.00;;;;;;;;;;5011858;28;20182;-76
2023/07/30 07:01:29;;;;;;;4.37;3.50;;;;;;;;;;5029537;28;20214;-76
2023/07/30 07:03:55;;;;;;;4.43;3.17;;;;;;;;;;5029181;28;20190;-76
2023/07/30 07:06:21;;;;;;;4.17;3.30;;;;;;;;;;5028657;28;20196;-76
2023/07/30 07:08:47;;;;;;;5.50;3.20;;;;;;;;;;5029367;28;20182;-76
2023/07/30 07:11:14;;;;;;;4.23;3.83;;;;;;;;;;5005344;28;20209;-75
2023/07/30 07:13:40;;;;;;;4.63;4.23;;;;;;;;;;5011442;28;20221;-76
2023/07/30 07:16:06;;;;;;;5.30;4.90;;;;;;;;;;5028519;28;20677;-76
2023/07/30 07:18:32;;;;;;;6.30;5.17;;;;;;;;;;5027796;28;20175;-76
2023/07/30 07:20:58;;;;;;;5.37;4.87;;;;;;;;;;5030071;28;20197;-76
2023/07/30 07:23:24;;;;;;;5.23;4.73;;;;;;;;;;5012665;28;20190;-76
2023/07/30 07:25:52;;;;;;;6.63;5.20;;;;;;;;;;5030877;28;20268;-76
2023/07/30 07:28:18;;;;;;;5.20;4.80;;;;;;;;;;5015772;28;20886;-75
2023/07/30 07:30:44;;;;;;;5.50;5.00;;;;;;;;;;5032923;28;20191;-75
2023/07/30 07:33:14;;;;;;;5.47;4.97;;;;;;;;;;5033112;28;20264;-75
2023/07/30 07:35:40;;;;;;;5.73;4.50;;;;;;;;;;5023920;28;20220;-76
2023/07/30 07:38:06;;;;;;;5.00;4.60;;;;;;;;;;5032091;28;20182;-76
2023/07/30 07:40:39;;;;;;;6.73;5.23;;;;;;;;;;5015552;28;20673;-76
2023/07/30 07:43:06;;;;;;;5.87;5.20;;;;;;;;;;5015628;28;20190;-76
2023/07/30 07:45:32;;;;;;;5.20;4.80;;;;;;;;;;5032926;28;20202;-76
2023/07/30 07:47:58;;;;;;;5.57;5.07;;;;;;;;;;5032854;28;20210;-76
2023/07/30 07:50:24;;;;;;;5.30;4.80;;;;;;;;;;5033154;28;20241;-76
2023/07/30 07:52:50;;;;;;;7.60;5.27;;;;;;;;;;5033767;28;20887;-76
2023/07/30 07:55:17;;;;;;;8.50;5.17;;;;;;;;;;5031418;28;20209;-76
2023/07/30 07:57:43;;;;;;;7.03;5.53;;;;;;;;;;5014594;28;20187;-76
2023/07/30 08:00:10;;;;;;;7.20;5.03;;;;;;;;;;5032645;28;20252;-76
2023/07/30 08:02:41;;;;;;;5.90;4.17;;;;;;;;;;5015222;28;20185;-75
2023/07/30 08:05:07;;;;;;;4.47;3.90;;;;;;;;;;5032329;28;20222;-76
2023/07/30 08:07:33;;;;;;;4.43;4.03;;;;;;;;;;5032090;28;20182;-76
2023/07/30 08:09:59;;;;;;;4.20;3.80;;;;;;;;;;4998247;28;20690;-76
2023/07/30 08:12:26;;;;;;;4.63;4.10;;;;;;;;;;5032408;28;20214;-76
2023/07/30 08:14:52;;;;;;;4.30;3.90;;;;;;;;;;5032153;28;20194;-76
2023/07/30 08:17:20;;;;;;;5.40;3.80;;;;;;;;;;5031701;28;20189;-76
2023/07/30 08:19:47;;;;;;;3.87;3.47;;;;;;;;;;5032296;28;20182;-76
2023/07/30 08:22:13;;;;;;;4.77;4.00;;;;;;;;;;5032433;28;20179;-76
2023/07/30 08:24:39;;;;;;;4.97;3.73;;;;;;;;;;5032296;28;20213;-76
2023/07/30 08:27:05;;;;;;;5.10;3.80;;;;;;;;;;5031678;28;20187;-75
2023/07/30 08:29:31;;;;;;;3.60;3.30;;;;;;;;;;5032417;28;20187;-76
2023/07/30 08:31:57;;;;;;;3.90;3.50;;;;;;;;;;5031767;28;20214;-76
2023/07/30 08:34:23;;;;;;;4.43;3.70;;;;;;;;;;4997411;28;20552;-76
2023/07/30 08:36:49;;;;;;;3.53;3.23;;;;;;;;;;5031179;28;20179;-76
2023/07/30 08:39:15;;;;;;;3.57;3.10;;;;;;;;;;5032237;28;20189;-76
2023/07/30 08:41:42;;;;;;;4.13;3.17;;;;;;;;;;5031822;28;20199;-76
2023/07/30 08:44:09;;;;;;;2.63;2.43;;;;;;;;;;5031949;28;20190;-76
2023/07/30 08:46:35;;;;;;;3.63;2.30;;;;;;;;;;5031490;28;20183;-76
2023/07/30 08:49:02;;;;;;;6.20;2.40;;;;;;;;;;5013085;28;20520;-76
2023/07/30 08:51:28;;;;;;;2.80;2.10;;;;;;;;;;5014704;28;20596;-76
2023/07/30 08:53:54;;;;;;;2.40;2.10;;;;;;;;;;5014773;28;20256;-76
2023/07/30 08:56:20;;;;;;;3.07;2.37;;;;;;;;;;5031009;28;20669;-75
2023/07/30 08:58:49;;;;;;;2.57;2.03;;;;;;;;;;5014169;28;20182;-76
2023/07/30 09:01:17;;;;;;;3.07;2.10;;;;;;;;;;5006200;28;20183;-76
2023/07/30 09:03:43;;;;;;;3.50;2.30;;;;;;;;;;5031712;28;20228;-76
2023/07/30 09:06:09;;;;;;;3.30;2.30;;;;;;;;;;5030766;28;20221;-76
2023/07/30 09:08:35;;;;;;;2.70;2.20;;;;;;;;;;5013992;28;20193;-76
2023/07/30 09:11:08;;;;;;;2.57;2.20;;;;;;;;;;5031201;28;20182;-76
2023/07/30 09:13:41;;;;;;;3.07;2.07;;;;;;;;;;5031641;28;20290;-76
2023/07/30 09:16:14;;;;;;;2.43;1.80;;;;;;;;;;5029863;28;20198;-76
2023/07/30 09:18:40;;;;;;;2.37;2.00;;;;;;;;;;5013744;28;20186;-76
2023/07/30 09:21:06;;;;;;;2.90;2.20;;;;;;;;;;5032006;28;20185;-77
2023/07/30 09:23:33;;;;;;;2.20;1.97;;;;;;;;;;5031481;28;20232;-76
2023/07/30 09:25:59;;;;;;;2.90;2.30;;;;;;;;;;5029086;28;20222;-76
2023/07/30 09:28:31;;;;;;;2.20;2.00;;;;;;;;;;5031174;28;20652;-76
2023/07/30 09:31:04;;;;;;;2.23;2.03;;;;;;;;;;5013226;28;20195;-76
2023/07/30 09:33:34;;;;;;;2.23;2.00;;;;;;;;;;5013633;28;20293;-76
2023/07/30 09:36:04;;;;;;;2.13;1.93;;;;;;;;;;5028533;28;20233;-76
2023/07/30 09:38:33;;;;;;;3.20;2.07;;;;;;;;;;5031141;28;20812;-76
2023/07/30 09:41:00;;;;;;;2.60;2.10;;;;;;;;;;5012953;28;20183;-77
2023/07/30 09:43:32;;;;;;;6.90;2.30;;;;;;;;;;5013605;28;20198;-76
2023/07/30 09:46:02;;;;;;;3.33;2.40;;;;;;;;;;4994519;28;20218;-76
2023/07/30 09:48:29;;;;;;;4.00;2.20;;;;;;;;;;5030860;28;20183;-76
2023/07/30 09:50:56;;;;;;;2.80;2.07;;;;;;;;;;5030548;28;20297;-76
2023/07/30 09:53:23;;;;;;;2.30;2.10;;;;;;;;;;5030613;28;20210;-76
2023/07/30 09:55:49;;;;;;;2.40;2.20;;;;;;;;;;5030013;28;20214;-76
2023/07/30 09:58:16;;;;;;;2.47;2.27;;;;;;;;;;5031236;28;20284;-76
2023/07/30 10:00:42;;;;;;;2.23;2.03;;;;;;;;;;5030843;28;20170;-76
2023/07/30 10:03:10;;;;;;;2.37;1.90;;;;;;;;;;5013356;28;20182;-76
2023/07/30 10:05:38;;;;;;;3.63;1.87;;;;;;;;;;5031336;28;20716;-76
2023/07/30 10:08:07;;;;;;;2.07;1.87;;;;;;;;;;5029891;28;20663;-76
2023/07/30 10:10:34;;;;;;;4.07;2.00;;;;;;;;;;5030535;28;20668;-76
2023/07/30 10:13:03;;;;;;;2.30;2.10;;;;;;;;;;5030224;28;20211;-76
2023/07/30 10:15:29;;;;;;;2.10;1.90;;;;;;;;;;5012770;28;20237;-76
2023/07/30 10:17:57;;;;;;;4.03;1.70;;;;;;;;;;5011820;28;20184;-76
2023/07/30 10:20:24;;;;;;;2.73;1.50;;;;;;;;;;5030242;28;20179;-76
2023/07/30 10:22:54;;;;;;;2.17;1.40;;;;;;;;;;5029963;28;20187;-76
2023/07/30 10:25:22;;;;;;;2.17;1.40;;;;;;;;;;5030250;28;20206;-76
2023/07/30 10:27:49;;;;;;;1.60;1.40;;;;;;;;;;5029523;28;20186;-76
2023/07/30 10:30:16;;;;;;;1.53;1.33;;;;;;;;;;5004781;28;20186;-76
2023/07/30 10:32:55;;;;;;;1.40;1.30;;;;;;;;;;4995854;28;20214;-76
2023/07/30 10:35:35;;;;;;;3.47;1.60;;;;;;;;;;5004064;28;20206;-76
2023/07/30 10:38:12;;;;;;;1.60;1.50;;;;;;;;;;5011484;28;20193;-76
2023/07/30 10:40:39;;;;;;;2.23;1.40;;;;;;;;;;5030001;28;20639;-76
2023/07/30 10:43:15;;;;;;;2.23;1.40;;;;;;;;;;5028746;28;20206;-75
2023/07/30 10:45:50;;;;;;;1.37;1.27;;;;;;;;;;5011994;28;20206;-76
2023/07/30 10:48:17;;;;;;;2.40;1.20;;;;;;;;;;5022811;28;20721;-76
2023/07/30 10:50:48;;;;;;;1.37;1.27;;;;;;;;;;5029755;28;20213;-76
2023/07/30 10:53:18;;;;;;;2.60;1.20;;;;;;;;;;5004187;28;20214;-76
2023/07/30 10:55:45;;;;;;;1.87;1.47;;;;;;;;;;5029098;28;20256;-76
2023/07/30 10:58:11;;;;;;;1.30;1.20;;;;;;;;;;4995909;28;20189;-75
2023/07/30 11:00:38;;;;;;;1.20;1.10;;;;;;;;;;5029733;28;20183;-75
2023/07/30 11:03:04;;;;;;;1.10;1.00;;;;;;;;;;5011915;28;20266;-75
2023/07/30 11:05:30;;;;;;;1.57;1.00;;;;;;;;;;5066423;22;20659;-75
2023/07/30 11:07:57;;;;;;;1.30;0.90;;;;;;;;;;5048701;28;20187;-75
2023/07/30 11:10:23;;;;;;;1.27;1.10;;;;;;;;;;5031693;28;20186;-75
2023/07/30 11:12:49;;;;;;;1.57;1.20;;;;;;;;;;5031256;28;20294;-75
2023/07/30 11:15:16;;;;;;;1.73;1.20;;;;;;;;;;5042569;28;20201;-75
2023/07/30 11:17:45;;;;;;;3.53;1.30;;;;;;;;;;5048476;28;20681;-75
2023/07/30 11:20:27;;;;;;;1.70;1.20;;;;;;;;;;5049310;28;20197;-75
2023/07/30 11:22:54;;;;;;;1.53;1.23;;;;;;;;;;5049038;28;20744;-75
2023/07/30 11:25:20;;;;;;;1.80;1.30;;;;;;;;;;5038455;28;20293;-75
2023/07/30 11:27:50;;;;;;;2.17;1.10;;;;;;;;;;5046052;28;20190;-75
2023/07/30 11:30:16;;;;;;;2.27;1.40;;;;;;;;;;5042790;28;20178;-75
2023/07/30 11:32:44;;;;;;;4.80;1.60;;;;;;;;;;5047629;28;20216;-76
2023/07/30 11:35:11;;;;;;;3.10;1.50;;;;;;;;;;5045230;28;20709;-75
2023/07/30 11:37:40;;;;;;;4.00;1.40;;;;;;;;;;5045047;28;20237;-75
2023/07/30 11:40:10;;;;;;;2.93;1.10;;;;;;;;;;5042549;28;20259;-75
2023/07/30 11:42:36;;;;;;;2.20;1.30;;;;;;;;;;5049192;28;20268;-75
2023/07/30 11:45:24;;;;;;;2.30;1.20;;;;;;;;;;5042173;28;20313;-75
2023/07/30 11:47:50;;;;;;;3.73;1.40;;;;;;;;;;5048472;28;20190;-75
2023/07/30 11:50:17;;;;;;;3.70;1.40;;;;;;;;;;5031427;28;20213;-75
2023/07/30 11:52:56;;;;;;;3.17;1.57;;;;;;;;;;5047813;28;20206;-76
2023/07/30 11:55:23;;;;;;;3.17;1.30;;;;;;;;;;5036656;28;20284;-77
2023/07/30 11:57:50;;;;;;;4.43;1.27;;;;;;;;;;5048333;28;20187;-77
2023/07/30 12:00:16;;;;;;;2.03;1.50;;;;;;;;;;5031239;28;20184;-77
2023/07/30 12:02:42;;;;;;;2.83;1.53;;;;;;;;;;5032614;28;20186;-77
2023/07/30 12:05:11;;;;;;;3.43;1.60;;;;;;;;;;5031353;28;20217;-77
2023/07/30 12:07:40;;;;;;;4.60;1.50;;;;;;;;;;5049083;28;20671;-77
2023/07/30 12:10:09;;;;;;;2.83;1.53;;;;;;;;;;5034837;28;20218;-77
2023/07/30 12:12:36;;;;;;;2.43;1.60;;;;;;;;;;5034827;28;20212;-76
2023/07/30 12:15:02;;;;;;;3.40;1.50;;;;;;;;;;5052339;28;20711;-77
2023/07/30 12:17:29;;;;;;;3.97;1.70;;;;;;;;;;5052020;28;20793;-77
2023/07/30 12:19:55;;;;;;;2.33;1.50;;;;;;;;;;5044300;28;20221;-77
2023/07/30 12:22:21;;;;;;;2.83;1.60;;;;;;;;;;5046961;28;20190;-77
2023/07/30 12:24:47;;;;;;;4.20;1.50;;;;;;;;;;5049749;28;20649;-77
2023/07/30 12:27:13;;;;;;;3.47;1.80;;;;;;;;;;5050280;28;20193;-77
2023/07/30 12:29:39;;;;;;;3.00;1.57;;;;;;;;;;5052448;28;20271;-77
2023/07/30 12:32:06;;;;;;;2.33;1.57;;;;;;;;;;5052008;28;20189;-77
2023/07/30 12:34:32;;;;;;;2.33;1.40;;;;;;;;;;5050550;28;20202;-77
2023/07/30 12:36:59;;;;;;;4.10;1.60;;;;;;;;;;5043621;28;20178;-77
2023/07/30 12:39:25;;;;;;;3.80;1.73;;;;;;;;;;5047211;28;20186;-77
2023/07/30 12:41:51;;;;;;;2.10;1.50;;;;;;;;;;5043127;28;20671;-76
2023/07/30 12:44:18;;;;;;;3.63;1.57;;;;;;;;;;5034075;28;20269;-77
2023/07/30 12:46:44;;;;;;;5.20;1.50;;;;;;;;;;5051062;28;20190;-77
2023/07/30 12:49:10;;;;;;;3.63;1.60;;;;;;;;;;5051706;28;20178;-77
2023/07/30 12:51:36;;;;;;;2.93;1.60;;;;;;;;;;5050521;28;20600;-77
2023/07/30 12:54:02;;;;;;;4.73;1.90;;;;;;;;;;5049876;28;20213;-77
2023/07/30 12:56:28;;;;;;;2.90;1.50;;;;;;;;;;5051045;28;20177;-77
2023/07/30 12:58:54;;;;;;;3.53;1.67;;;;;;;;;;5051235;28;20197;-77
2023/07/30 13:01:20;;;;;;;2.70;1.40;;;;;;;;;;5039797;28;20178;-77
2023/07/30 13:03:48;;;;;;;2.40;1.63;;;;;;;;;;5048896;28;20238;-77
2023/07/30 13:06:14;;;;;;;2.03;1.33;;;;;;;;;;5050534;28;20279;-77
2023/07/30 13:08:40;;;;;;;3.13;1.47;;;;;;;;;;5051289;28;20205;-77
2023/07/30 13:11:06;;;;;;;3.77;1.50;;;;;;;;;;5051284;28;20208;-77
2023/07/30 13:13:33;;;;;;;2.43;1.30;;;;;;;;;;5050303;28;20271;-77
2023/07/30 13:16:01;;;;;;;5.00;1.63;;;;;;;;;;5049530;28;20209;-77
2023/07/30 13:18:27;;;;;;;3.40;1.70;;;;;;;;;;5046240;28;20618;-76
2023/07/30 13:20:54;;;;;;;3.37;1.70;;;;;;;;;;5042533;28;20235;-77
2023/07/30 13:23:20;;;;;;;5.60;1.40;;;;;;;;;;5050877;28;20189;-77
2023/07/30 13:25:46;;;;;;;1.93;1.47;;;;;;;;;;5049641;28;20267;-77
2023/07/30 13:28:12;;;;;;;3.57;1.50;;;;;;;;;;5050545;28;20190;-78
2023/07/30 13:30:38;;;;;;;2.60;1.50;;;;;;;;;;5044321;28;20186;-77
2023/07/30 13:33:04;;;;;;;4.40;1.53;;;;;;;;;;5050336;28;20212;-77
2023/07/30 13:35:30;;;;;;;3.93;1.60;;;;;;;;;;5050743;28;20194;-77
2023/07/30 13:37:56;;;;;;;2.73;1.63;;;;;;;;;;5043341;28;20181;-77
2023/07/30 13:40:23;;;;;;;3.77;1.60;;;;;;;;;;5050494;28;20209;-77
2023/07/30 13:42:49;;;;;;;2.20;1.50;;;;;;;;;;5050543;28;20181;-77
2023/07/30 13:45:15;;;;;;;2.87;1.50;;;;;;;;;;5050522;28;20285;-77
2023/07/30 13:47:41;;;;;;;4.60;1.80;;;;;;;;;;5043118;28;20214;-77
2023/07/30 13:50:08;;;;;;;3.67;1.40;;;;;;;;;;5050430;28;20667;-77
2023/07/30 13:52:34;;;;;;;2.57;1.60;;;;;;;;;;5050541;28;20217;-77
2023/07/30 13:55:00;;;;;;;3.07;1.63;;;;;;;;;;5049031;28;20696;-77
2023/07/30 13:57:26;;;;;;;3.60;1.73;;;;;;;;;;5049727;28;20186;-77
2023/07/30 13:59:52;;;;;;;3.30;1.70;;;;;;;;;;5047574;28;20177;-77
2023/07/30 14:02:19;;;;;;;3.03;1.70;;;;;;;;;;5050583;28;20265;-77
2023/07/30 14:04:45;;;;;;;6.00;1.83;;;;;;;;;;5049616;28;20237;-77
2023/07/30 14:07:11;;;;;;;3.03;1.40;;;;;;;;;;5048500;28;20251;-77
2023/07/30 14:09:37;;;;;;;3.60;1.57;;;;;;;;;;5048991;28;20208;-77
2023/07/30 14:12:04;;;;;;;3.33;1.50;;;;;;;;;;5036704;28;20269;-77
2023/07/30 14:14:30;;;;;;;4.17;1.53;;;;;;;;;;5050358;28;20201;-77
2023/07/30 14:16:56;;;;;;;3.70;1.57;;;;;;;;;;5049529;28;20185;-77
2023/07/30 14:19:22;;;;;;;3.50;1.53;;;;;;;;;;5050140;28;20192;-77
2023/07/30 14:21:48;;;;;;;2.73;1.40;;;;;;;;;;5050337;28;20190;-77
2023/07/30 14:24:14;;;;;;;3.63;1.50;;;;;;;;;;5050106;28;20555;-77
2023/07/30 14:26:41;;;;;;;2.73;1.43;;;;;;;;;;5049457;28;20180;-78
2023/07/30 14:29:07;;;;;;;2.33;1.57;;;;;;;;;;5047110;28;20178;-78
2023/07/30 14:31:33;;;;;;;3.73;1.50;;;;;;;;;;5049094;28;20209;-77
2023/07/30 14:33:59;;;;;;;3.23;1.60;;;;;;;;;;5049827;28;20573;-77